Time;durP1;ratioP1;P1;durP2;ratioP2;P2;SDS_P1;SDS_P2;PMS_P1;PMS_P2;Temp;Humidity;BMP_temperature;BMP_pressure;BME280_temperature;BME280_humidity;BME280_pressure;Samples;Min_cycle;Max_cycle;Signal;HPM_P1;HPM_P2
2021/04/19 00:00:09;;;;;;;20.45;13.93;;;5.90;99.90;;;;;;5052606;28;20351;-68
2021/04/19 00:02:36;;;;;;;18.98;12.48;;;5.90;99.90;;;;;;5052541;28;20652;-67
2021/04/19 00:05:06;;;;;;;18.63;12.63;;;5.80;99.90;;;;;;5052125;28;20669;-67
2021/04/19 00:07:34;;;;;;;18.52;11.65;;;5.80;99.90;;;;;;5052649;28;20299;-66
2021/04/19 00:10:01;;;;;;;20.33;12.23;;;5.80;99.90;;;;;;5053178;28;20192;-67
2021/04/19 00:12:28;;;;;;;23.10;12.63;;;5.80;99.90;;;;;;5034798;28;20244;-67
2021/04/19 00:14:55;;;;;;;23.08;12.00;;;5.80;99.90;;;;;;5052489;28;20199;-67
2021/04/19 00:17:23;;;;;;;25.00;12.68;;;5.90;99.90;;;;;;5052704;28;20216;-67
2021/04/19 00:19:51;;;;;;;22.40;12.85;;;5.90;99.90;;;;;;5052471;28;20188;-67
2021/04/19 00:22:18;;;;;;;14.68;10.48;;;5.90;99.90;;;;;;5058039;22;20263;-67
2021/04/19 00:24:45;;;;;;;19.52;12.25;;;5.80;99.90;;;;;;5037245;28;20259;-68
2021/04/19 00:27:12;;;;;;;22.10;11.90;;;5.90;99.90;;;;;;5037350;28;20259;-68
2021/04/19 00:29:39;;;;;;;24.60;13.55;;;5.80;99.90;;;;;;5035490;28;20239;-70
2021/04/19 00:32:07;;;;;;;19.48;13.32;;;5.90;99.90;;;;;;5036353;28;20217;-69
2021/04/19 00:34:35;;;;;;;21.35;15.57;;;5.80;99.90;;;;;;5035843;28;20182;-69
2021/04/19 00:37:03;;;;;;;23.30;12.82;;;5.80;99.90;;;;;;5037441;28;20209;-69
2021/04/19 00:39:34;;;;;;;20.15;12.02;;;5.70;99.90;;;;;;5042261;28;20177;-69
2021/04/19 00:42:02;;;;;;;20.48;11.75;;;5.60;99.90;;;;;;5041078;28;20185;-69
2021/04/19 00:44:29;;;;;;;22.33;13.25;;;5.60;99.90;;;;;;5037421;28;20185;-69
2021/04/19 00:46:56;;;;;;;30.42;15.45;;;5.50;99.90;;;;;;5019658;28;20193;-69
2021/04/19 00:49:24;;;;;;;20.70;13.98;;;5.60;99.90;;;;;;5039111;28;20208;-70
2021/04/19 00:51:53;;;;;;;30.02;16.42;;;5.60;99.90;;;;;;5039239;28;20263;-69
2021/04/19 00:54:20;;;;;;;21.70;13.13;;;5.50;99.90;;;;;;5021065;28;20287;-70
2021/04/19 00:56:49;;;;;;;23.23;13.98;;;5.50;99.90;;;;;;5040296;28;20174;-70
2021/04/19 00:59:16;;;;;;;23.98;11.60;;;5.30;99.90;;;;;;5040615;28;20317;-69
2021/04/19 01:01:44;;;;;;;16.23;13.32;;;5.30;99.90;;;;;;5039816;28;20190;-70
2021/04/19 01:04:12;;;;;;;20.70;12.93;;;5.30;99.90;;;;;;5019061;28;20208;-69
2021/04/19 01:06:40;;;;;;;20.35;13.65;;;5.30;99.90;;;;;;5013551;28;20239;-70
2021/04/19 01:09:09;;;;;;;26.38;10.20;;;5.20;99.90;;;;;;5031406;28;20263;-70
2021/04/19 01:11:38;;;;;;;21.20;12.90;;;5.10;99.90;;;;;;5031665;28;20563;-69
2021/04/19 01:14:05;;;;;;;26.48;13.25;;;5.00;99.90;;;;;;5013847;28;20188;-68
2021/04/19 01:16:33;;;;;;;23.10;12.15;;;5.10;99.90;;;;;;5031321;28;20600;-68
2021/04/19 01:19:01;;;;;;;31.73;13.77;;;5.20;99.90;;;;;;5030832;28;20201;-69
2021/04/19 01:21:29;;;;;;;33.75;13.38;;;5.30;99.90;;;;;;5013214;28;20616;-69
2021/04/19 01:23:56;;;;;;;19.08;14.05;;;5.30;99.90;;;;;;5031763;28;20410;-70
2021/04/19 01:26:24;;;;;;;43.55;13.07;;;5.40;99.90;;;;;;5030712;28;20176;-69
2021/04/19 01:28:56;;;;;;;15.57;10.82;;;5.30;99.90;;;;;;5031090;28;20201;-69
2021/04/19 01:31:23;;;;;;;17.85;12.23;;;5.30;99.90;;;;;;5030718;28;20197;-70
2021/04/19 01:33:55;;;;;;;21.75;13.18;;;5.30;99.90;;;;;;5013238;28;20173;-68
2021/04/19 01:36:24;;;;;;;28.95;13.25;;;5.40;99.90;;;;;;5030760;28;20193;-70
2021/04/19 01:38:55;;;;;;;17.10;12.90;;;5.40;99.90;;;;;;5030313;28;20209;-69
2021/04/19 01:41:23;;;;;;;18.23;11.38;;;5.20;99.90;;;;;;5030239;28;20188;-70
2021/04/19 01:43:50;;;;;;;16.98;10.80;;;5.20;99.90;;;;;;5012771;28;20207;-68
2021/04/19 01:46:17;;;;;;;16.75;10.30;;;5.10;99.90;;;;;;5030283;28;20189;-70
2021/04/19 01:48:45;;;;;;;18.30;11.63;;;5.10;99.90;;;;;;5012328;28;20742;-70
2021/04/19 01:51:13;;;;;;;21.05;12.52;;;5.10;99.90;;;;;;5012566;28;20198;-70
2021/04/19 01:53:41;;;;;;;16.23;11.60;;;5.10;99.90;;;;;;5012598;28;20182;-69
2021/04/19 01:56:09;;;;;;;19.67;11.13;;;5.10;99.90;;;;;;5012614;28;20202;-70
2021/04/19 01:58:41;;;;;;;17.63;11.20;;;5.10;99.90;;;;;;5012502;28;20236;-69
2021/04/19 02:01:09;;;;;;;14.10;11.57;;;5.10;99.90;;;;;;5030881;28;20602;-69
2021/04/19 02:03:49;;;;;;;24.33;11.98;;;4.90;99.90;;;;;;5030332;28;20550;-67
2021/04/19 02:06:28;;;;;;;18.40;11.93;;;4.80;99.90;;;;;;5012292;28;20216;-69
2021/04/19 02:09:02;;;;;;;15.23;11.18;;;4.90;99.90;;;;;;5030300;28;20240;-68
2021/04/19 02:11:43;;;;;;;17.73;9.90;;;4.90;99.90;;;;;;5012407;28;20201;-69
2021/04/19 02:14:22;;;;;;;18.52;12.63;;;4.90;99.90;;;;;;5030259;28;20185;-69
2021/04/19 02:17:01;;;;;;;24.40;9.75;;;5.00;99.90;;;;;;5030544;28;20186;-70
2021/04/19 02:19:40;;;;;;;18.40;11.65;;;5.00;99.90;;;;;;5014873;28;20280;-69
2021/04/19 02:22:13;;;;;;;17.48;12.20;;;5.00;99.90;;;;;;5016449;28;20270;-69
2021/04/19 02:24:44;;;;;;;25.20;13.02;;;5.10;99.90;;;;;;5034174;28;20185;-69
2021/04/19 02:27:20;;;;;;;20.35;10.20;;;5.10;99.90;;;;;;5016127;28;20217;-71
2021/04/19 02:29:59;;;;;;;21.15;13.73;;;5.10;99.90;;;;;;5016319;28;20719;-68
2021/04/19 02:32:34;;;;;;;18.27;9.43;;;5.10;99.90;;;;;;5016163;28;20247;-68
2021/04/19 02:35:09;;;;;;;14.82;8.63;;;5.10;99.90;;;;;;5016273;28;20458;-68
2021/04/19 02:37:44;;;;;;;15.98;10.00;;;5.10;99.90;;;;;;5016052;28;20312;-68
2021/04/19 02:40:15;;;;;;;17.02;10.25;;;5.10;99.90;;;;;;5033916;28;20678;-69
2021/04/19 02:42:48;;;;;;;19.15;10.20;;;5.00;99.90;;;;;;5033749;28;20173;-69
2021/04/19 02:45:20;;;;;;;14.55;10.30;;;5.00;99.90;;;;;;5034292;28;20211;-69
2021/04/19 02:47:56;;;;;;;18.05;10.10;;;5.10;99.90;;;;;;5033483;28;20368;-69
2021/04/19 02:50:37;;;;;;;15.93;10.05;;;5.10;99.90;;;;;;5033541;28;20197;-70
2021/04/19 02:53:05;;;;;;;16.55;10.20;;;5.10;99.90;;;;;;5033172;28;20808;-67
2021/04/19 02:55:33;;;;;;;20.52;10.95;;;5.10;99.90;;;;;;5033204;28;20193;-68
2021/04/19 02:58:04;;;;;;;12.38;9.20;;;5.10;99.90;;;;;;5033516;28;20215;-69
2021/04/19 03:00:36;;;;;;;15.95;11.65;;;5.00;99.90;;;;;;5015699;28;20193;-69
2021/04/19 03:03:08;;;;;;;17.70;9.63;;;5.00;99.90;;;;;;5015864;28;20182;-69
2021/04/19 03:05:39;;;;;;;20.30;10.10;;;5.10;99.90;;;;;;5016244;28;20215;-69
2021/04/19 03:08:12;;;;;;;19.48;11.77;;;5.00;99.90;;;;;;5016745;28;20312;-69
2021/04/19 03:10:44;;;;;;;16.58;10.77;;;5.10;99.90;;;;;;5015932;28;20200;-69
2021/04/19 03:13:14;;;;;;;13.45;9.45;;;5.10;99.90;;;;;;5015818;28;20564;-67
2021/04/19 03:15:46;;;;;;;17.65;11.82;;;5.20;99.90;;;;;;5015528;28;20670;-68
2021/04/19 03:18:17;;;;;;;13.75;10.00;;;5.10;99.90;;;;;;5034035;28;20212;-69
2021/04/19 03:21:07;;;;;;;17.35;9.50;;;5.10;99.90;;;;;;5014962;28;20239;-69
2021/04/19 03:23:45;;;;;;;12.27;9.90;;;5.10;99.90;;;;;;5015689;28;20223;-69
2021/04/19 03:26:19;;;;;;;16.50;10.00;;;5.00;99.90;;;;;;5015597;28;20283;-68
2021/04/19 03:28:50;;;;;;;17.20;11.13;;;4.90;99.90;;;;;;5014691;28;20220;-68
2021/04/19 03:31:26;;;;;;;15.77;8.82;;;4.90;99.90;;;;;;5013821;28;20213;-68
2021/04/19 03:34:05;;;;;;;14.40;9.55;;;4.80;99.90;;;;;;5014896;28;20572;-69
2021/04/19 03:36:36;;;;;;;28.83;11.35;;;4.80;99.90;;;;;;5014997;28;20772;-67
2021/04/19 03:39:05;;;;;;;23.75;10.15;;;4.90;99.90;;;;;;5015185;28;20694;-69
2021/04/19 03:41:38;;;;;;;10.70;8.82;;;4.80;99.90;;;;;;5014936;28;20272;-68
2021/04/19 03:44:09;;;;;;;13.48;11.02;;;4.80;99.90;;;;;;5032788;28;20193;-70
2021/04/19 03:46:40;;;;;;;19.33;11.48;;;4.80;99.90;;;;;;5014617;28;20193;-68
2021/04/19 03:49:19;;;;;;;19.52;12.05;;;4.80;99.90;;;;;;5014559;28;20666;-71
2021/04/19 03:51:58;;;;;;;20.42;10.55;;;4.80;99.90;;;;;;5014412;28;20715;-68
2021/04/19 03:54:33;;;;;;;24.98;13.35;;;4.80;99.90;;;;;;5032695;28;20307;-70
2021/04/19 03:57:03;;;;;;;25.75;12.25;;;4.70;99.90;;;;;;5014490;28;20205;-69
2021/04/19 03:59:34;;;;;;;33.92;12.65;;;4.70;99.90;;;;;;5032459;28;20189;-71
2021/04/19 04:02:09;;;;;;;20.65;11.85;;;4.80;99.90;;;;;;5014636;28;20276;-70
2021/04/19 04:04:57;;;;;;;19.45;10.07;;;4.80;99.90;;;;;;5031780;28;20229;-70
2021/04/19 04:07:39;;;;;;;15.93;11.20;;;4.90;99.90;;;;;;5013895;28;20220;-69
2021/04/19 04:10:09;;;;;;;22.75;11.15;;;4.90;99.90;;;;;;5014245;28;20193;-70
2021/04/19 04:12:37;;;;;;;23.33;14.43;;;5.10;99.90;;;;;;5031803;28;20207;-68
2021/04/19 04:15:07;;;;;;;32.80;12.50;;;5.00;99.90;;;;;;5013955;28;20212;-69
2021/04/19 04:17:42;;;;;;;22.95;13.32;;;5.00;99.90;;;;;;5031811;28;20221;-70
2021/04/19 04:20:27;;;;;;;19.70;11.48;;;5.00;99.90;;;;;;5013774;28;20276;-67
2021/04/19 04:23:03;;;;;;;13.02;10.35;;;5.00;99.90;;;;;;5031891;28;20642;-69
2021/04/19 04:25:35;;;;;;;22.83;13.45;;;5.00;99.90;;;;;;5031595;28;20173;-68
2021/04/19 04:28:05;;;;;;;16.75;12.05;;;5.00;99.90;;;;;;5031334;28;20198;-70
2021/04/19 04:30:41;;;;;;;22.83;12.70;;;5.10;99.90;;;;;;5013747;28;20563;-68
2021/04/19 04:33:19;;;;;;;21.08;13.65;;;5.20;99.90;;;;;;5013585;28;20209;-67
2021/04/19 04:35:53;;;;;;;16.98;11.45;;;5.20;99.90;;;;;;5013367;28;20196;-68
2021/04/19 04:38:34;;;;;;;17.77;12.73;;;5.30;99.90;;;;;;5031150;28;20217;-69
2021/04/19 04:41:07;;;;;;;17.33;13.88;;;5.40;99.90;;;;;;5013583;28;20197;-70
2021/04/19 04:43:37;;;;;;;21.10;13.50;;;5.30;99.90;;;;;;5031291;28;20185;-70
2021/04/19 04:46:12;;;;;;;24.17;14.75;;;5.40;99.90;;;;;;5030986;28;20185;-69
2021/04/19 04:48:49;;;;;;;19.95;12.95;;;5.60;99.90;;;;;;5031081;28;20240;-69
2021/04/19 04:51:19;;;;;;;26.90;14.80;;;5.70;99.90;;;;;;5031389;28;20216;-70
2021/04/19 04:53:53;;;;;;;20.17;11.95;;;5.80;99.90;;;;;;5031080;28;20186;-70
2021/04/19 04:56:24;;;;;;;21.70;14.13;;;5.80;99.90;;;;;;5013393;28;20577;-70
2021/04/19 04:58:54;;;;;;;18.17;12.60;;;5.80;99.90;;;;;;5030766;28;20220;-69
2021/04/19 05:01:24;;;;;;;17.35;11.13;;;5.90;99.90;;;;;;5031179;28;20184;-70
2021/04/19 05:03:52;;;;;;;15.05;10.23;;;6.00;99.90;;;;;;5031172;28;20530;-69
2021/04/19 05:06:19;;;;;;;13.82;10.15;;;6.00;99.90;;;;;;5031017;28;20204;-70
2021/04/19 05:08:48;;;;;;;20.88;12.13;;;6.10;99.90;;;;;;5030822;28;20621;-68
2021/04/19 05:11:19;;;;;;;22.30;14.25;;;6.10;99.90;;;;;;5030510;28;20185;-69
2021/04/19 05:13:49;;;;;;;18.63;11.82;;;6.10;99.90;;;;;;5030512;28;20184;-69
2021/04/19 05:16:25;;;;;;;22.48;15.15;;;6.10;99.90;;;;;;5030742;28;20692;-68
2021/04/19 05:18:52;;;;;;;18.05;13.38;;;6.10;99.90;;;;;;5030937;28;20204;-69
2021/04/19 05:21:20;;;;;;;23.08;15.65;;;6.20;99.90;;;;;;5030708;28;20634;-69
2021/04/19 05:23:47;;;;;;;24.00;14.32;;;6.30;99.90;;;;;;5031269;28;20686;-70
2021/04/19 05:26:14;;;;;;;22.05;16.08;;;6.30;99.90;;;;;;5033790;28;20546;-69
2021/04/19 05:28:42;;;;;;;23.63;14.45;;;6.10;99.90;;;;;;5033675;28;20619;-69
2021/04/19 05:31:11;;;;;;;22.35;13.77;;;6.00;99.90;;;;;;5032376;28;20186;-69
2021/04/19 05:33:39;;;;;;;27.58;16.52;;;6.00;99.90;;;;;;5029364;28;20193;-69
2021/04/19 05:36:08;;;;;;;29.23;17.80;;;6.00;99.90;;;;;;5030382;28;20338;-68
2021/04/19 05:38:36;;;;;;;32.03;18.00;;;6.10;99.90;;;;;;5029787;28;20283;-68
2021/04/19 05:41:05;;;;;;;30.92;17.15;;;6.20;99.90;;;;;;5029945;28;20261;-70
2021/04/19 05:43:32;;;;;;;27.13;17.20;;;6.20;99.90;;;;;;5030007;28;20173;-69
2021/04/19 05:46:01;;;;;;;33.20;18.10;;;6.30;99.90;;;;;;5030095;28;20255;-70
2021/04/19 05:48:29;;;;;;;26.48;17.77;;;6.40;99.90;;;;;;5030069;28;20209;-68
2021/04/19 05:51:01;;;;;;;25.40;17.00;;;6.40;99.90;;;;;;5030576;28;20213;-69
2021/04/19 05:53:29;;;;;;;28.42;17.27;;;6.30;99.90;;;;;;5033363;28;20591;-68
2021/04/19 05:55:58;;;;;;;31.23;15.43;;;6.30;99.90;;;;;;5035387;28;20205;-70
2021/04/19 05:58:29;;;;;;;23.17;14.38;;;6.30;99.90;;;;;;5017625;28;20240;-68
2021/04/19 06:01:04;;;;;;;32.72;16.23;;;6.30;99.90;;;;;;5033852;28;20184;-72
2021/04/19 06:03:42;;;;;;;23.45;14.35;;;6.40;99.90;;;;;;5034234;28;20173;-70
2021/04/19 06:06:17;;;;;;;21.90;12.93;;;6.50;99.90;;;;;;5035081;28;20176;-70
2021/04/19 06:08:54;;;;;;;25.25;15.65;;;6.60;99.90;;;;;;5035048;28;20197;-71
2021/04/19 06:11:38;;;;;;;22.20;13.55;;;6.50;99.90;;;;;;5036076;28;20192;-70
2021/04/19 06:14:29;;;;;;;21.50;13.77;;;6.40;99.90;;;;;;5036133;28;20538;-70
2021/04/19 06:17:00;;;;;;;26.98;14.90;;;6.70;99.90;;;;;;5034911;28;20750;-69
2021/04/19 06:19:29;;;;;;;26.25;15.23;;;6.70;99.90;;;;;;5034889;28;20190;-68
2021/04/19 06:21:57;;;;;;;28.17;15.73;;;6.70;99.90;;;;;;5060907;22;20229;-79
2021/04/19 06:24:24;;;;;;;24.48;15.30;;;6.70;99.90;;;;;;5020502;28;20293;-80
2021/04/19 06:26:51;;;;;;;24.63;14.82;;;6.80;99.90;;;;;;5020675;28;20193;-80
2021/04/19 06:29:25;;;;;;;22.65;15.50;;;6.90;99.90;;;;;;5038804;28;20256;-80
2021/04/19 06:31:53;;;;;;;25.05;16.55;;;7.10;99.90;;;;;;5038458;28;20216;-80
2021/04/19 06:34:21;;;;;;;27.15;15.15;;;7.20;99.90;;;;;;5039482;28;20186;-81
2021/04/19 06:36:50;;;;;;;27.25;15.45;;;7.40;99.90;;;;;;5038772;28;20178;-80
2021/04/19 06:39:19;;;;;;;29.58;21.25;;;7.50;99.90;;;;;;5037902;28;20188;-79
2021/04/19 06:41:48;;;;;;;28.00;16.40;;;7.60;99.90;;;;;;5038156;28;20244;-80
2021/04/19 06:44:15;;;;;;;23.08;14.73;;;7.80;99.90;;;;;;5023254;28;20265;-79
2021/04/19 06:46:45;;;;;;;23.33;15.15;;;7.80;99.90;;;;;;5034322;28;20245;-79
2021/04/19 06:49:13;;;;;;;21.77;12.80;;;7.90;99.90;;;;;;5035614;28;20189;-79
2021/04/19 06:51:41;;;;;;;28.92;20.02;;;7.90;99.90;;;;;;5034765;28;20217;-79
2021/04/19 06:54:10;;;;;;;25.45;15.30;;;8.00;99.90;;;;;;5036825;28;20201;-80
2021/04/19 06:56:41;;;;;;;28.00;13.93;;;8.20;99.90;;;;;;5040437;28;20178;-80
2021/04/19 06:59:10;;;;;;;42.90;35.20;;;8.40;99.90;;;;;;5030392;28;20216;-81
2021/04/19 07:01:39;;;;;;;23.73;19.58;;;8.30;99.90;;;;;;5057516;28;20229;-80
2021/04/19 07:04:10;;;;;;;35.00;30.48;;;8.50;99.90;;;;;;5040630;28;20190;-80
2021/04/19 07:06:39;;;;;;;25.33;16.85;;;8.50;99.90;;;;;;5058156;28;20174;-79
2021/04/19 07:09:17;;;;;;;27.75;20.00;;;8.60;99.90;;;;;;5059183;28;20181;-84
2021/04/19 07:11:50;;;;;;;27.73;19.65;;;8.50;99.90;;;;;;5058962;28;20205;-82
2021/04/19 07:14:18;;;;;;;27.73;18.85;;;8.30;99.90;;;;;;5059382;28;20193;-79
2021/04/19 07:16:45;;;;;;;23.65;14.57;;;8.40;99.90;;;;;;5036764;28;20261;-79
2021/04/19 07:19:13;;;;;;;18.45;13.82;;;8.40;99.90;;;;;;5040592;28;20197;-79
2021/04/19 07:21:40;;;;;;;20.25;13.70;;;8.40;99.90;;;;;;5023176;28;20224;-80
2021/04/19 07:24:09;;;;;;;20.02;13.90;;;8.50;99.90;;;;;;5042319;28;20233;-79
2021/04/19 07:26:37;;;;;;;20.35;12.85;;;8.30;99.90;;;;;;5033263;28;20189;-79
2021/04/19 07:29:06;;;;;;;17.67;13.57;;;8.10;99.90;;;;;;5032177;28;20747;-79
2021/04/19 07:31:47;;;;;;;22.08;12.88;;;8.00;99.90;;;;;;5048931;28;20300;-79
2021/04/19 07:34:16;;;;;;;17.13;13.13;;;8.10;99.90;;;;;;5043906;28;20205;-81
2021/04/19 07:36:49;;;;;;;19.17;14.00;;;8.40;99.90;;;;;;5040107;28;20186;-78
2021/04/19 07:39:19;;;;;;;24.05;15.15;;;8.40;99.90;;;;;;5041724;28;20248;-80
2021/04/19 07:41:49;;;;;;;24.80;16.20;;;8.70;99.90;;;;;;5038527;28;20213;-80
2021/04/19 07:44:35;;;;;;;21.17;19.02;;;8.90;99.90;;;;;;5038695;28;20188;-79
2021/04/19 07:47:29;;;;;;;20.70;16.17;;;9.00;99.90;;;;;;5038540;28;20244;-79
2021/04/19 07:50:21;;;;;;;18.00;15.70;;;9.40;99.90;;;;;;5020695;28;20197;-79
2021/04/19 07:52:57;;;;;;;23.33;15.45;;;9.80;99.90;;;;;;5038011;28;20622;-79
2021/04/19 07:55:27;;;;;;;21.27;13.93;;;10.00;99.90;;;;;;5020897;28;20280;-80
2021/04/19 07:58:06;;;;;;;23.52;15.23;;;9.80;99.90;;;;;;5020014;28;20232;-78
2021/04/19 08:00:36;;;;;;;25.20;16.05;;;9.70;99.90;;;;;;5037542;28;20232;-78
2021/04/19 08:03:06;;;;;;;20.38;14.80;;;9.30;99.90;;;;;;5036337;28;20182;-78
2021/04/19 08:05:36;;;;;;;24.70;18.27;;;8.90;99.90;;;;;;5018469;28;20284;-79
2021/04/19 08:08:04;;;;;;;25.35;15.43;;;8.70;99.90;;;;;;5036842;28;20235;-79
2021/04/19 08:10:31;;;;;;;24.33;16.17;;;8.70;99.90;;;;;;5038036;28;20193;-79
2021/04/19 08:13:10;;;;;;;22.42;16.55;;;8.80;99.90;;;;;;5039374;28;20217;-78
2021/04/19 08:15:41;;;;;;;25.05;16.13;;;9.20;99.90;;;;;;5023287;28;20193;-78
2021/04/19 08:18:12;;;;;;;24.13;16.23;;;9.50;99.90;;;;;;5039821;28;20174;-80
2021/04/19 08:20:48;;;;;;;24.08;16.50;;;9.90;99.90;;;;;;5041401;28;20272;-78
2021/04/19 08:23:16;;;;;;;32.42;16.58;;;9.90;99.90;;;;;;5018777;28;20177;-78
2021/04/19 08:25:45;;;;;;;23.50;15.85;;;9.90;99.90;;;;;;5037375;28;20182;-79
2021/04/19 08:28:14;;;;;;;22.77;17.13;;;9.90;99.90;;;;;;5037787;28;20185;-78
2021/04/19 08:30:46;;;;;;;29.17;18.27;;;10.00;99.90;;;;;;5038493;28;20252;-79
2021/04/19 08:33:14;;;;;;;30.73;20.95;;;10.10;99.90;;;;;;5041410;28;20209;-79
2021/04/19 08:35:43;;;;;;;22.67;16.08;;;10.00;99.90;;;;;;5044269;28;20185;-79
2021/04/19 08:38:11;;;;;;;28.00;18.08;;;10.10;99.90;;;;;;5055862;28;20173;-81
2021/04/19 08:40:40;;;;;;;24.88;16.95;;;10.30;99.90;;;;;;5039497;28;20200;-80
2021/04/19 08:43:10;;;;;;;22.73;18.02;;;10.60;99.90;;;;;;5056472;28;20229;-81
2021/04/19 08:45:40;;;;;;;18.85;15.07;;;10.80;99.90;;;;;;5039553;28;20185;-82
2021/04/19 08:48:10;;;;;;;29.63;18.17;;;10.90;99.90;;;;;;5044860;28;20200;-80
2021/04/19 08:50:37;;;;;;;26.27;18.38;;;10.80;99.90;;;;;;5020738;28;20228;-81
2021/04/19 08:53:08;;;;;;;23.93;16.50;;;10.70;99.90;;;;;;5038514;28;20209;-80
2021/04/19 08:55:36;;;;;;;24.93;15.90;;;11.10;99.90;;;;;;5022294;28;20415;-80
2021/04/19 08:58:09;;;;;;;26.63;19.87;;;11.50;99.90;;;;;;5040347;28;20413;-79
2021/04/19 09:00:37;;;;;;;22.30;16.63;;;11.40;99.90;;;;;;5038082;28;20440;-79
2021/04/19 09:03:05;;;;;;;25.58;16.90;;;10.90;99.90;;;;;;5042933;28;20474;-81
2021/04/19 09:05:35;;;;;;;23.37;17.20;;;10.50;99.90;;;;;;5022719;28;20225;-80
2021/04/19 09:08:04;;;;;;;19.23;12.55;;;10.40;99.90;;;;;;5018880;28;20407;-80
2021/04/19 09:10:49;;;;;;;23.70;16.52;;;10.40;99.90;;;;;;5037443;28;20541;-81
2021/04/19 09:13:27;;;;;;;24.05;14.77;;;10.30;99.90;;;;;;5036450;28;20202;-80
2021/04/19 09:15:54;;;;;;;19.35;14.05;;;10.40;99.90;;;;;;5037691;28;20264;-82
2021/04/19 09:18:22;;;;;;;19.17;14.68;;;10.50;99.90;;;;;;5037920;28;20182;-83
2021/04/19 09:20:52;;;;;;;21.80;15.85;;;10.60;99.90;;;;;;5036877;28;20213;-80
2021/04/19 09:23:22;;;;;;;19.77;15.63;;;10.60;99.90;;;;;;5035848;28;20185;-82
2021/04/19 09:25:49;;;;;;;23.95;14.43;;;10.60;99.90;;;;;;5035562;28;20205;-82
2021/04/19 09:28:55;;;;;;;20.70;15.00;;;10.70;99.90;;;;;;5039792;28;20190;-79
2021/04/19 09:32:02;;;;;;;23.13;15.65;;;10.70;99.90;;;;;;5030229;28;20220;-81
2021/04/19 09:34:40;;;;;;;18.63;14.82;;;10.80;99.90;;;;;;5047918;28;20197;-79
2021/04/19 09:37:09;;;;;;;19.07;13.37;;;11.00;99.90;;;;;;5046890;28;20192;-79
2021/04/19 09:39:56;;;;;;;27.23;16.20;;;11.20;99.90;;;;;;5044218;28;20406;-81
2021/04/19 09:43:04;;;;;;;23.33;20.00;;;11.30;99.90;;;;;;5021290;28;20426;-81
2021/04/19 09:45:55;;;;;;;25.20;15.50;;;11.50;99.90;;;;;;5019076;28;20450;-80
2021/04/19 09:48:45;;;;;;;26.73;18.00;;;11.70;99.90;;;;;;5034715;28;20387;-80
2021/04/19 09:51:16;;;;;;;22.63;16.20;;;12.10;99.90;;;;;;5034937;28;20450;-80
2021/04/19 09:53:53;;;;;;;24.70;16.03;;;12.30;99.90;;;;;;5034958;28;20430;-80
2021/04/19 09:56:22;;;;;;;19.37;14.40;;;12.50;99.90;;;;;;5017338;28;20403;-80
2021/04/19 09:58:49;;;;;;;20.20;15.13;;;12.60;99.90;;;;;;5016841;28;20437;-79
2021/04/19 10:01:19;;;;;;;20.90;14.30;;;12.60;99.90;;;;;;5033858;28;20970;-78
2021/04/19 10:03:50;;;;;;;19.47;14.30;;;12.70;99.90;;;;;;5036321;28;20407;-78
2021/04/19 10:06:21;;;;;;;17.03;14.37;;;12.70;99.90;;;;;;5035836;28;20440;-79
2021/04/19 10:08:50;;;;;;;17.47;13.47;;;12.80;99.90;;;;;;5019276;28;20438;-79
2021/04/19 10:11:23;;;;;;;19.67;13.77;;;12.90;99.90;;;;;;5038429;28;20440;-80
2021/04/19 10:13:50;;;;;;;16.90;13.20;;;13.30;99.90;;;;;;5036757;28;20490;-79
2021/04/19 10:16:18;;;;;;;19.63;14.10;;;13.60;99.90;;;;;;5016515;28;20775;-79
2021/04/19 10:18:50;;;;;;;16.93;14.33;;;13.50;99.90;;;;;;5033677;28;20383;-79
2021/04/19 10:21:27;;;;;;;21.23;16.23;;;13.40;99.90;;;;;;5033780;28;20463;-79
2021/04/19 10:23:56;;;;;;;19.50;12.87;;;13.40;99.90;;;;;;5033905;28;20896;-77
2021/04/19 10:26:35;;;;;;;19.30;12.00;;;13.50;99.90;;;;;;5034237;28;20383;-79
2021/04/19 10:29:15;;;;;;;20.93;15.67;;;13.70;99.90;;;;;;5033885;28;20415;-79
2021/04/19 10:31:49;;;;;;;20.10;14.80;;;13.70;99.90;;;;;;5031498;28;20456;-81
2021/04/19 10:34:17;;;;;;;20.50;16.20;;;14.00;99.90;;;;;;5016955;28;20463;-79
2021/04/19 10:36:48;;;;;;;23.20;16.27;;;14.40;99.90;;;;;;5033821;28;20419;-78
2021/04/19 10:39:18;;;;;;;16.27;12.87;;;14.50;99.90;;;;;;5034801;28;20765;-78
2021/04/19 10:41:48;;;;;;;21.47;13.27;;;14.70;99.90;;;;;;5038133;28;20874;-80
2021/04/19 10:44:17;;;;;;;20.57;15.10;;;14.90;99.90;;;;;;5039675;28;20820;-79
2021/04/19 10:46:45;;;;;;;18.27;11.43;;;14.90;99.90;;;;;;5024055;28;20402;-79
2021/04/19 10:49:24;;;;;;;15.90;13.83;;;14.90;99.90;;;;;;5023763;28;20410;-79
2021/04/19 10:51:52;;;;;;;13.90;11.03;;;15.10;99.90;;;;;;5059594;28;20443;-80
2021/04/19 10:54:26;;;;;;;14.53;13.00;;;15.40;99.90;;;;;;5057194;28;20468;-79
2021/04/19 10:56:53;;;;;;;14.30;11.50;;;15.40;99.90;;;;;;5053267;28;20403;-79
2021/04/19 10:59:23;;;;;;;16.83;14.43;;;15.30;99.90;;;;;;5058130;28;20399;-79
2021/04/19 11:01:58;;;;;;;17.80;13.43;;;15.40;99.90;;;;;;5041778;28;20423;-79
2021/04/19 11:04:26;;;;;;;20.00;14.00;;;15.50;99.90;;;;;;5041786;28;20449;-79
2021/04/19 11:06:55;;;;;;;15.37;11.73;;;15.50;99.90;;;;;;5049615;28;20459;-79
2021/04/19 11:09:27;;;;;;;15.80;13.40;;;15.40;99.90;;;;;;5038751;28;20415;-79
2021/04/19 11:11:55;;;;;;;16.40;12.57;;;15.50;99.90;;;;;;5021919;28;20829;-79
2021/04/19 11:14:24;;;;;;;16.83;12.67;;;15.80;99.90;;;;;;5038728;28;20874;-80
2021/04/19 11:16:57;;;;;;;24.80;14.40;;;15.90;99.90;;;;;;5038300;28;20463;-79
2021/04/19 11:19:30;;;;;;;22.90;12.33;;;16.10;99.90;;;;;;5020152;28;20527;-79
2021/04/19 11:21:57;;;;;;;15.77;12.97;;;16.20;99.90;;;;;;5020322;28;20464;-78
2021/04/19 11:24:37;;;;;;;16.70;13.77;;;16.30;99.90;;;;;;5020390;28;20411;-77
2021/04/19 11:27:06;;;;;;;14.87;12.03;;;16.20;99.90;;;;;;5038576;28;20473;-77
2021/04/19 11:29:38;;;;;;;18.53;14.23;;;16.00;99.90;;;;;;5039645;28;20439;-78
2021/04/19 11:32:06;;;;;;;14.90;12.33;;;15.90;99.90;;;;;;5038723;28;20486;-79
2021/04/19 11:34:39;;;;;;;17.87;13.23;;;16.10;99.90;;;;;;5039793;28;20511;-79
2021/04/19 11:37:30;;;;;;;17.80;12.80;;;16.30;99.90;;;;;;5040503;28;20530;-79
2021/04/19 11:39:59;;;;;;;19.00;13.30;;;16.90;99.90;;;;;;5040763;28;20861;-78
2021/04/19 11:42:33;;;;;;;18.93;13.77;;;17.30;99.90;;;;;;5022506;28;20431;-79
2021/04/19 11:45:01;;;;;;;16.40;14.10;;;17.80;99.90;;;;;;5040419;28;20415;-79
2021/04/19 11:47:28;;;;;;;16.40;13.53;;;18.00;99.90;;;;;;5040915;28;20519;-78
2021/04/19 11:49:57;;;;;;;14.50;12.00;;;18.00;99.90;;;;;;5024954;28;20802;-79
2021/04/19 11:52:25;;;;;;;17.83;13.93;;;18.10;99.90;;;;;;5022387;28;20444;-77
2021/04/19 11:54:53;;;;;;;16.07;11.40;;;18.00;99.90;;;;;;5042231;28;20435;-78
2021/04/19 11:57:21;;;;;;;20.03;13.50;;;18.00;99.90;;;;;;5042743;28;20401;-79
2021/04/19 11:59:48;;;;;;;16.93;15.13;;;17.80;99.90;;;;;;5024237;28;20407;-79
2021/04/19 12:02:15;;;;;;;16.93;13.53;;;17.30;99.90;;;;;;5040469;28;20426;-80
2021/04/19 12:04:42;;;;;;;15.70;13.23;;;16.90;99.90;;;;;;5021054;28;20708;-80
2021/04/19 12:07:09;;;;;;;17.87;14.57;;;16.70;99.90;;;;;;5020541;28;21022;-79
2021/04/19 12:09:36;;;;;;;16.70;14.80;;;16.60;99.90;;;;;;5044785;28;20403;-79
2021/04/19 12:12:05;;;;;;;15.93;13.03;;;16.60;99.90;;;;;;5032078;28;20741;-79
2021/04/19 12:14:33;;;;;;;17.53;12.90;;;16.80;99.90;;;;;;5031806;28;20484;-79
2021/04/19 12:17:00;;;;;;;18.13;14.40;;;16.40;99.90;;;;;;5032353;28;20440;-79
2021/04/19 12:19:27;;;;;;;14.50;12.00;;;15.90;99.90;;;;;;5027439;28;20467;-82
2021/04/19 12:21:54;;;;;;;17.70;14.13;;;15.80;99.90;;;;;;5052475;22;20532;-67
2021/04/19 12:24:21;;;;;;;22.50;15.40;;;15.90;99.90;;;;;;5018971;28;20414;-66
2021/04/19 12:26:48;;;;;;;18.40;14.47;;;15.80;99.90;;;;;;5012687;28;20792;-68
2021/04/19 12:29:16;;;;;;;19.37;13.93;;;15.70;99.90;;;;;;5013187;28;20857;-67
2021/04/19 12:31:44;;;;;;;20.57;13.70;;;15.70;99.90;;;;;;5012313;28;20528;-67
2021/04/19 12:34:11;;;;;;;19.63;15.53;;;15.60;99.90;;;;;;5012211;28;20855;-68
2021/04/19 12:36:38;;;;;;;23.57;14.63;;;15.60;99.90;;;;;;5011387;28;20820;-67
2021/04/19 12:39:06;;;;;;;22.73;14.60;;;15.70;99.90;;;;;;5011902;28;20526;-66
2021/04/19 12:41:34;;;;;;;18.30;13.40;;;15.60;99.90;;;;;;5011801;28;20425;-67
2021/04/19 12:44:01;;;;;;;18.87;14.17;;;15.70;99.90;;;;;;5011999;28;20422;-68
2021/04/19 12:46:28;;;;;;;19.70;14.10;;;15.90;99.90;;;;;;5011545;28;20766;-67
2021/04/19 12:48:57;;;;;;;17.10;13.80;;;16.00;99.90;;;;;;5012983;28;20438;-67
2021/04/19 12:51:26;;;;;;;17.87;13.07;;;16.10;99.90;;;;;;5017339;28;20402;-67
2021/04/19 12:53:53;;;;;;;19.50;14.17;;;16.00;99.90;;;;;;5011441;28;20462;-68